sensor_id;sensor_type;location;lat;lon;timestamp;P1;durP1;ratioP1;P2;durP2;ratioP2
9409;SDS011;4744;52.576;13.568;2023-06-01T00:00:12;1.50;;;1.33;;
9409;SDS011;4744;52.576;13.568;2023-06-01T00:02:40;1.50;;;1.40;;
9409;SDS011;4744;52.576;13.568;2023-06-01T00:05:08;1.38;;;1.27;;
9409;SDS011;4744;52.576;13.568;2023-06-01T00:07:35;1.38;;;1.27;;
9409;SDS011;4744;52.576;13.568;2023-06-01T00:10:02;1.40;;;1.30;;
9409;SDS011;4744;52.576;13.568;2023-06-01T00:12:30;1.85;;;1.42;;
9409;SDS011;4744;52.576;13.568;2023-06-01T00:14:57;1.30;;;1.20;;
9409;SDS011;4744;52.576;13.568;2023-06-01T00:17:24;1.40;;;1.30;;
9409;SDS011;4744;52.576;13.568;2023-06-01T00:19:51;1.63;;;1.30;;
9409;SDS011;4744;52.576;13.568;2023-06-01T00:22:19;1.40;;;1.23;;
9409;SDS011;4744;52.576;13.568;2023-06-01T00:24:49;1.50;;;1.23;;
9409;SDS011;4744;52.576;13.568;2023-06-01T00:27:15;1.60;;;1.50;;
9409;SDS011;4744;52.576;13.568;2023-06-01T00:29:42;1.58;;;1.48;;
9409;SDS011;4744;52.576;13.568;2023-06-01T00:32:09;1.95;;;1.60;;
9409;SDS011;4744;52.576;13.568;2023-06-01T00:34:36;1.77;;;1.58;;
9409;SDS011;4744;52.576;13.568;2023-06-01T00:37:03;3.08;;;1.60;;
9409;SDS011;4744;52.576;13.568;2023-06-01T00:39:31;1.63;;;1.42;;
9409;SDS011;4744;52.576;13.568;2023-06-01T00:41:58;1.70;;;1.60;;
9409;SDS011;4744;52.576;13.568;2023-06-01T00:44:25;2.58;;;1.45;;
9409;SDS011;4744;52.576;13.568;2023-06-01T00:46:52;1.80;;;1.70;;
9409;SDS011;4744;52.576;13.568;2023-06-01T00:49:19;2.03;;;1.80;;
9409;SDS011;4744;52.576;13.568;2023-06-01T00:51:46;3.42;;;1.73;;
9409;SDS011;4744;52.576;13.568;2023-06-01T00:54:13;2.67;;;1.70;;
9409;SDS011;4744;52.576;13.568;2023-06-01T00:56:41;2.22;;;1.98;;
9409;SDS011;4744;52.576;13.568;2023-06-01T00:59:08;2.00;;;1.58;;
9409;SDS011;4744;52.576;13.568;2023-06-01T01:01:35;1.73;;;1.63;;
9409;SDS011;4744;52.576;13.568;2023-06-01T01:04:02;1.63;;;1.52;;
9409;SDS011;4744;52.576;13.568;2023-06-01T01:06:32;1.52;;;1.42;;
9409;SDS011;4744;52.576;13.568;2023-06-01T01:09:21;2.22;;;1.70;;
9409;SDS011;4744;52.576;13.568;2023-06-01T01:11:56;1.70;;;1.60;;
9409;SDS011;4744;52.576;13.568;2023-06-01T01:14:28;2.05;;;1.83;;
9409;SDS011;4744;52.576;13.568;2023-06-01T01:17:02;1.80;;;1.70;;
9409;SDS011;4744;52.576;13.568;2023-06-01T01:19:43;1.65;;;1.55;;
9409;SDS011;4744;52.576;13.568;2023-06-01T01:22:22;2.55;;;1.80;;
9409;SDS011;4744;52.576;13.568;2023-06-01T01:25:10;1.70;;;1.60;;
9409;SDS011;4744;52.576;13.568;2023-06-01T01:27:59;2.03;;;1.90;;
9409;SDS011;4744;52.576;13.568;2023-06-01T01:30:41;2.50;;;1.90;;
9409;SDS011;4744;52.576;13.568;2023-06-01T01:33:10;2.10;;;1.52;;
9409;SDS011;4744;52.576;13.568;2023-06-01T01:35:37;1.98;;;1.80;;
9409;SDS011;4744;52.576;13.568;2023-06-01T01:38:05;4.32;;;2.15;;
9409;SDS011;4744;52.576;13.568;2023-06-01T01:40:32;2.08;;;1.65;;
9409;SDS011;4744;52.576;13.568;2023-06-01T01:42:58;1.70;;;1.60;;
9409;SDS011;4744;52.576;13.568;2023-06-01T01:45:26;1.85;;;1.73;;
9409;SDS011;4744;52.576;13.568;2023-06-01T01:47:59;1.65;;;1.55;;
9409;SDS011;4744;52.576;13.568;2023-06-01T01:50:36;1.60;;;1.50;;
9409;SDS011;4744;52.576;13.568;2023-06-01T01:53:07;1.70;;;1.58;;
9409;SDS011;4744;52.576;13.568;2023-06-01T01:55:35;1.85;;;1.50;;
9409;SDS011;4744;52.576;13.568;2023-06-01T01:58:02;1.50;;;1.40;;
9409;SDS011;4744;52.576;13.568;2023-06-01T02:00:30;1.75;;;1.65;;
9409;SDS011;4744;52.576;13.568;2023-06-01T02:02:59;1.80;;;1.70;;
9409;SDS011;4744;52.576;13.568;2023-06-01T02:05:26;3.28;;;1.83;;
9409;SDS011;4744;52.576;13.568;2023-06-01T02:07:53;1.75;;;1.65;;
9409;SDS011;4744;52.576;13.568;2023-06-01T02:10:20;2.85;;;1.70;;
9409;SDS011;4744;52.576;13.568;2023-06-01T02:12:47;2.05;;;1.73;;
9409;SDS011;4744;52.576;13.568;2023-06-01T02:15:14;2.20;;;2.00;;
9409;SDS011;4744;52.576;13.568;2023-06-01T02:17:41;1.80;;;1.70;;
9409;SDS011;4744;52.576;13.568;2023-06-01T02:20:10;2.10;;;1.90;;
9409;SDS011;4744;52.576;13.568;2023-06-01T02:22:37;2.15;;;1.63;;
9409;SDS011;4744;52.576;13.568;2023-06-01T02:25:04;2.95;;;1.65;;
9409;SDS011;4744;52.576;13.568;2023-06-01T02:27:31;1.88;;;1.77;;
9409;SDS011;4744;52.576;13.568;2023-06-01T02:29:58;1.73;;;1.63;;
9409;SDS011;4744;52.576;13.568;2023-06-01T02:32:25;2.13;;;1.65;;
9409;SDS011;4744;52.576;13.568;2023-06-01T02:34:55;2.00;;;1.90;;
9409;SDS011;4744;52.576;13.568;2023-06-01T02:37:23;2.38;;;2.20;;
9409;SDS011;4744;52.576;13.568;2023-06-01T02:39:50;3.10;;;1.88;;
9409;SDS011;4744;52.576;13.568;2023-06-01T02:42:17;1.83;;;1.73;;
9409;SDS011;4744;52.576;13.568;2023-06-01T02:44:44;1.92;;;1.73;;
9409;SDS011;4744;52.576;13.568;2023-06-01T02:47:11;1.90;;;1.80;;
9409;SDS011;4744;52.576;13.568;2023-06-01T02:49:38;2.20;;;2.00;;
9409;SDS011;4744;52.576;13.568;2023-06-01T02:52:05;2.00;;;1.90;;
9409;SDS011;4744;52.576;13.568;2023-06-01T02:54:34;2.13;;;1.92;;
9409;SDS011;4744;52.576;13.568;2023-06-01T02:57:01;2.80;;;2.47;;
9409;SDS011;4744;52.576;13.568;2023-06-01T02:59:27;2.40;;;2.20;;
9409;SDS011;4744;52.576;13.568;2023-06-01T03:01:54;2.47;;;2.28;;
9409;SDS011;4744;52.576;13.568;2023-06-01T03:04:21;2.30;;;2.10;;
9409;SDS011;4744;52.576;13.568;2023-06-01T03:06:48;3.28;;;2.25;;
9409;SDS011;4744;52.576;13.568;2023-06-01T03:09:15;3.40;;;2.60;;
9409;SDS011;4744;52.576;13.568;2023-06-01T03:11:43;2.30;;;2.10;;
9409;SDS011;4744;52.576;13.568;2023-06-01T03:14:10;2.60;;;2.40;;
9409;SDS011;4744;52.576;13.568;2023-06-01T03:16:37;3.53;;;2.80;;
9409;SDS011;4744;52.576;13.568;2023-06-01T03:19:04;2.92;;;2.50;;
9409;SDS011;4744;52.576;13.568;2023-06-01T03:21:31;4.63;;;3.00;;
9409;SDS011;4744;52.576;13.568;2023-06-01T03:23:59;3.20;;;2.88;;
9409;SDS011;4744;52.576;13.568;2023-06-01T03:26:26;3.03;;;2.70;;
9409;SDS011;4744;52.576;13.568;2023-06-01T03:28:54;5.28;;;2.90;;
9409;SDS011;4744;52.576;13.568;2023-06-01T03:31:21;3.88;;;2.80;;
9409;SDS011;4744;52.576;13.568;2023-06-01T03:33:48;3.20;;;2.90;;
9409;SDS011;4744;52.576;13.568;2023-06-01T03:36:15;4.15;;;2.83;;
9409;SDS011;4744;52.576;13.568;2023-06-01T03:38:42;4.28;;;2.60;;
9409;SDS011;4744;52.576;13.568;2023-06-01T03:41:09;3.22;;;3.00;;
9409;SDS011;4744;52.576;13.568;2023-06-01T03:43:36;3.35;;;3.05;;
9409;SDS011;4744;52.576;13.568;2023-06-01T03:46:04;4.50;;;3.20;;
9409;SDS011;4744;52.576;13.568;2023-06-01T03:48:31;4.13;;;3.35;;
9409;SDS011;4744;52.576;13.568;2023-06-01T03:50:58;6.22;;;3.28;;
9409;SDS011;4744;52.576;13.568;2023-06-01T03:53:24;7.30;;;3.67;;
9409;SDS011;4744;52.576;13.568;2023-06-01T03:55:51;6.57;;;3.95;;
9409;SDS011;4744;52.576;13.568;2023-06-01T03:58:19;4.85;;;3.25;;
9409;SDS011;4744;52.576;13.568;2023-06-01T04:00:48;5.28;;;4.05;;
9409;SDS011;4744;52.576;13.568;2023-06-01T04:03:17;6.85;;;3.70;;
9409;SDS011;4744;52.576;13.568;2023-06-01T04:05:46;4.22;;;3.40;;
9409;SDS011;4744;52.576;13.568;2023-06-01T04:08:15;6.80;;;3.80;;
9409;SDS011;4744;52.576;13.568;2023-06-01T04:10:45;5.53;;;3.90;;
9409;SDS011;4744;52.576;13.568;2023-06-01T04:13:12;5.07;;;4.05;;
9409;SDS011;4744;52.576;13.568;2023-06-01T04:15:38;5.70;;;4.20;;
9409;SDS011;4744;52.576;13.568;2023-06-01T04:18:05;4.80;;;4.15;;
9409;SDS011;4744;52.576;13.568;2023-06-01T04:20:33;8.80;;;4.55;;
9409;SDS011;4744;52.576;13.568;2023-06-01T04:23:01;6.10;;;4.65;;
9409;SDS011;4744;52.576;13.568;2023-06-01T04:25:27;7.72;;;4.60;;
9409;SDS011;4744;52.576;13.568;2023-06-01T04:27:55;7.13;;;5.07;;
9409;SDS011;4744;52.576;13.568;2023-06-01T04:30:23;6.78;;;4.60;;
9409;SDS011;4744;52.576;13.568;2023-06-01T04:32:50;6.90;;;4.72;;
9409;SDS011;4744;52.576;13.568;2023-06-01T04:35:16;7.35;;;5.03;;
9409;SDS011;4744;52.576;13.568;2023-06-01T04:37:45;6.88;;;5.03;;
9409;SDS011;4744;52.576;13.568;2023-06-01T04:40:12;7.90;;;5.30;;
9409;SDS011;4744;52.576;13.568;2023-06-01T04:42:39;11.00;;;5.55;;
9409;SDS011;4744;52.576;13.568;2023-06-01T04:45:08;9.27;;;5.40;;
9409;SDS011;4744;52.576;13.568;2023-06-01T04:47:35;7.82;;;4.97;;
9409;SDS011;4744;52.576;13.568;2023-06-01T04:50:05;6.63;;;4.85;;
9409;SDS011;4744;52.576;13.568;2023-06-01T04:52:33;9.60;;;5.75;;
9409;SDS011;4744;52.576;13.568;2023-06-01T04:55:01;10.45;;;5.97;;
9409;SDS011;4744;52.576;13.568;2023-06-01T04:57:29;10.70;;;7.25;;
9409;SDS011;4744;52.576;13.568;2023-06-01T04:59:57;8.88;;;7.45;;
9409;SDS011;4744;52.576;13.568;2023-06-01T05:02:24;10.40;;;6.57;;
9409;SDS011;4744;52.576;13.568;2023-06-01T05:04:51;11.15;;;6.80;;
9409;SDS011;4744;52.576;13.568;2023-06-01T05:07:18;11.88;;;7.50;;
9409;SDS011;4744;52.576;13.568;2023-06-01T05:09:46;9.82;;;6.60;;
9409;SDS011;4744;52.576;13.568;2023-06-01T05:12:14;10.90;;;7.72;;
9409;SDS011;4744;52.576;13.568;2023-06-01T05:14:41;12.07;;;7.78;;
9409;SDS011;4744;52.576;13.568;2023-06-01T05:17:08;11.02;;;7.90;;
9409;SDS011;4744;52.576;13.568;2023-06-01T05:19:35;10.20;;;7.75;;
9409;SDS011;4744;52.576;13.568;2023-06-01T05:22:02;11.68;;;7.43;;
9409;SDS011;4744;52.576;13.568;2023-06-01T05:24:29;13.75;;;8.23;;
9409;SDS011;4744;52.576;13.568;2023-06-01T05:26:56;12.20;;;7.93;;
9409;SDS011;4744;52.576;13.568;2023-06-01T05:29:24;10.40;;;7.78;;
9409;SDS011;4744;52.576;13.568;2023-06-01T05:31:51;10.48;;;7.35;;
9409;SDS011;4744;52.576;13.568;2023-06-01T05:34:18;12.80;;;8.38;;
9409;SDS011;4744;52.576;13.568;2023-06-01T05:36:46;12.00;;;7.80;;
9409;SDS011;4744;52.576;13.568;2023-06-01T05:39:13;8.73;;;7.68;;
9409;SDS011;4744;52.576;13.568;2023-06-01T05:41:41;9.13;;;6.85;;
9409;SDS011;4744;52.576;13.568;2023-06-01T05:44:07;9.93;;;7.43;;
9409;SDS011;4744;52.576;13.568;2023-06-01T05:46:36;9.02;;;6.85;;
9409;SDS011;4744;52.576;13.568;2023-06-01T05:49:03;10.70;;;7.22;;
9409;SDS011;4744;52.576;13.568;2023-06-01T05:51:30;11.32;;;7.65;;
9409;SDS011;4744;52.576;13.568;2023-06-01T05:54:01;8.55;;;6.30;;
9409;SDS011;4744;52.576;13.568;2023-06-01T05:56:28;10.73;;;6.70;;
9409;SDS011;4744;52.576;13.568;2023-06-01T05:58:55;9.88;;;6.57;;
9409;SDS011;4744;52.576;13.568;2023-06-01T06:01:22;7.47;;;5.88;;
9409;SDS011;4744;52.576;13.568;2023-06-01T06:03:50;9.65;;;5.82;;
9409;SDS011;4744;52.576;13.568;2023-06-01T06:06:17;8.98;;;5.68;;
9409;SDS011;4744;52.576;13.568;2023-06-01T06:08:45;11.70;;;5.70;;
9409;SDS011;4744;52.576;13.568;2023-06-01T06:11:12;8.23;;;5.70;;
9409;SDS011;4744;52.576;13.568;2023-06-01T06:13:39;8.38;;;5.88;;
9409;SDS011;4744;52.576;13.568;2023-06-01T06:16:06;11.30;;;5.93;;
9409;SDS011;4744;52.576;13.568;2023-06-01T06:18:33;7.18;;;5.53;;
9409;SDS011;4744;52.576;13.568;2023-06-01T06:21:01;8.70;;;5.45;;
9409;SDS011;4744;52.576;13.568;2023-06-01T06:23:28;10.20;;;6.35;;
9409;SDS011;4744;52.576;13.568;2023-06-01T06:25:55;7.50;;;5.03;;
9409;SDS011;4744;52.576;13.568;2023-06-01T06:28:22;8.75;;;4.95;;
9409;SDS011;4744;52.576;13.568;2023-06-01T06:30:48;9.30;;;5.88;;
9409;SDS011;4744;52.576;13.568;2023-06-01T06:33:15;7.72;;;5.60;;
9409;SDS011;4744;52.576;13.568;2023-06-01T06:35:42;7.93;;;5.75;;
9409;SDS011;4744;52.576;13.568;2023-06-01T06:38:11;7.88;;;5.50;;
9409;SDS011;4744;52.576;13.568;2023-06-01T06:40:38;7.22;;;5.38;;
9409;SDS011;4744;52.576;13.568;2023-06-01T06:43:05;8.75;;;5.50;;
9409;SDS011;4744;52.576;13.568;2023-06-01T06:45:32;8.75;;;5.00;;
9409;SDS011;4744;52.576;13.568;2023-06-01T06:47:59;9.93;;;5.07;;
9409;SDS011;4744;52.576;13.568;2023-06-01T06:50:26;8.10;;;5.40;;
9409;SDS011;4744;52.576;13.568;2023-06-01T06:52:53;8.07;;;5.07;;
9409;SDS011;4744;52.576;13.568;2023-06-01T06:55:22;9.10;;;5.72;;
9409;SDS011;4744;52.576;13.568;2023-06-01T06:57:49;9.40;;;5.75;;
9409;SDS011;4744;52.576;13.568;2023-06-01T07:00:16;8.02;;;5.50;;
9409;SDS011;4744;52.576;13.568;2023-06-01T07:02:43;8.80;;;5.63;;
9409;SDS011;4744;52.576;13.568;2023-06-01T07:05:11;10.85;;;5.82;;
9409;SDS011;4744;52.576;13.568;2023-06-01T07:07:38;7.15;;;5.40;;
9409;SDS011;4744;52.576;13.568;2023-06-01T07:10:06;6.30;;;4.85;;
9409;SDS011;4744;52.576;13.568;2023-06-01T07:12:35;7.55;;;5.28;;
9409;SDS011;4744;52.576;13.568;2023-06-01T07:15:02;9.27;;;5.00;;
9409;SDS011;4744;52.576;13.568;2023-06-01T07:17:31;6.65;;;5.07;;
9409;SDS011;4744;52.576;13.568;2023-06-01T07:19:59;7.45;;;5.15;;
9409;SDS011;4744;52.576;13.568;2023-06-01T07:22:26;6.85;;;5.20;;
9409;SDS011;4744;52.576;13.568;2023-06-01T07:24:53;7.82;;;4.88;;
9409;SDS011;4744;52.576;13.568;2023-06-01T07:27:20;8.20;;;5.05;;
9409;SDS011;4744;52.576;13.568;2023-06-01T07:29:49;9.32;;;5.25;;
9409;SDS011;4744;52.576;13.568;2023-06-01T07:32:20;11.63;;;5.18;;
9409;SDS011;4744;52.576;13.568;2023-06-01T07:34:46;12.40;;;4.82;;
9409;SDS011;4744;52.576;13.568;2023-06-01T07:37:13;7.15;;;4.88;;
9409;SDS011;4744;52.576;13.568;2023-06-01T07:39:40;5.70;;;4.82;;
9409;SDS011;4744;52.576;13.568;2023-06-01T07:42:07;8.52;;;5.38;;
9409;SDS011;4744;52.576;13.568;2023-06-01T07:44:34;9.25;;;4.65;;
9409;SDS011;4744;52.576;13.568;2023-06-01T07:47:03;7.80;;;4.80;;
9409;SDS011;4744;52.576;13.568;2023-06-01T07:49:30;8.93;;;5.28;;
9409;SDS011;4744;52.576;13.568;2023-06-01T07:52:00;8.35;;;5.20;;
9409;SDS011;4744;52.576;13.568;2023-06-01T07:54:27;7.95;;;4.78;;
9409;SDS011;4744;52.576;13.568;2023-06-01T07:56:54;7.63;;;4.80;;
9409;SDS011;4744;52.576;13.568;2023-06-01T07:59:22;8.65;;;4.72;;
9409;SDS011;4744;52.576;13.568;2023-06-01T08:01:48;6.93;;;5.13;;
9409;SDS011;4744;52.576;13.568;2023-06-01T08:04:18;9.85;;;4.82;;
9409;SDS011;4744;52.576;13.568;2023-06-01T08:06:46;8.48;;;5.03;;
9409;SDS011;4744;52.576;13.568;2023-06-01T08:09:12;6.90;;;5.00;;
9409;SDS011;4744;52.576;13.568;2023-06-01T08:11:39;8.80;;;5.30;;
9409;SDS011;4744;52.576;13.568;2023-06-01T08:14:06;6.78;;;4.72;;
9409;SDS011;4744;52.576;13.568;2023-06-01T08:16:33;8.75;;;5.05;;
9409;SDS011;4744;52.576;13.568;2023-06-01T08:19:01;8.90;;;4.72;;
9409;SDS011;4744;52.576;13.568;2023-06-01T08:21:29;8.07;;;4.72;;
9409;SDS011;4744;52.576;13.568;2023-06-01T08:23:56;8.55;;;3.97;;
9409;SDS011;4744;52.576;13.568;2023-06-01T08:26:24;5.05;;;3.92;;
9409;SDS011;4744;52.576;13.568;2023-06-01T08:28:51;7.05;;;4.30;;
9409;SDS011;4744;52.576;13.568;2023-06-01T08:31:18;9.57;;;4.85;;
9409;SDS011;4744;52.576;13.568;2023-06-01T08:33:45;5.70;;;4.70;;
9409;SDS011;4744;52.576;13.568;2023-06-01T08:36:13;7.95;;;4.78;;
9409;SDS011;4744;52.576;13.568;2023-06-01T08:38:41;7.78;;;4.60;;
9409;SDS011;4744;52.576;13.568;2023-06-01T08:41:10;5.53;;;4.47;;
9409;SDS011;4744;52.576;13.568;2023-06-01T08:43:43;8.57;;;4.20;;
9409;SDS011;4744;52.576;13.568;2023-06-01T08:46:16;6.82;;;4.40;;
9409;SDS011;4744;52.576;13.568;2023-06-01T08:48:46;9.90;;;4.80;;
9409;SDS011;4744;52.576;13.568;2023-06-01T08:51:15;5.90;;;4.20;;
9409;SDS011;4744;52.576;13.568;2023-06-01T08:53:44;5.55;;;4.25;;
9409;SDS011;4744;52.576;13.568;2023-06-01T08:56:13;7.78;;;4.00;;
9409;SDS011;4744;52.576;13.568;2023-06-01T08:58:40;5.55;;;3.90;;
9409;SDS011;4744;52.576;13.568;2023-06-01T09:01:09;11.40;;;4.38;;
9409;SDS011;4744;52.576;13.568;2023-06-01T09:03:41;5.72;;;3.47;;
9409;SDS011;4744;52.576;13.568;2023-06-01T09:06:08;5.68;;;4.07;;
9409;SDS011;4744;52.576;13.568;2023-06-01T09:08:35;5.28;;;3.95;;
9409;SDS011;4744;52.576;13.568;2023-06-01T09:11:04;6.70;;;3.63;;
9409;SDS011;4744;52.576;13.568;2023-06-01T09:13:31;4.90;;;3.85;;
9409;SDS011;4744;52.576;13.568;2023-06-01T09:15:59;6.32;;;3.70;;
9409;SDS011;4744;52.576;13.568;2023-06-01T09:18:26;6.38;;;3.50;;
9409;SDS011;4744;52.576;13.568;2023-06-01T09:20:53;6.88;;;3.80;;
9409;SDS011;4744;52.576;13.568;2023-06-01T09:23:25;8.50;;;3.83;;
9409;SDS011;4744;52.576;13.568;2023-06-01T09:26:07;7.28;;;4.07;;
9409;SDS011;4744;52.576;13.568;2023-06-01T09:28:51;5.50;;;4.28;;
9409;SDS011;4744;52.576;13.568;2023-06-01T09:31:35;6.30;;;4.20;;
9409;SDS011;4744;52.576;13.568;2023-06-01T09:34:03;5.53;;;3.85;;
9409;SDS011;4744;52.576;13.568;2023-06-01T09:36:30;7.88;;;3.88;;
9409;SDS011;4744;52.576;13.568;2023-06-01T09:39:01;6.97;;;4.13;;
9409;SDS011;4744;52.576;13.568;2023-06-01T09:44:26;5.63;;;3.90;;
9409;SDS011;4744;52.576;13.568;2023-06-01T09:46:54;7.93;;;3.90;;
9409;SDS011;4744;52.576;13.568;2023-06-01T09:49:23;9.20;;;4.10;;
9409;SDS011;4744;52.576;13.568;2023-06-01T09:51:52;6.15;;;3.85;;
9409;SDS011;4744;52.576;13.568;2023-06-01T09:54:22;5.63;;;4.05;;
9409;SDS011;4744;52.576;13.568;2023-06-01T09:56:51;9.40;;;3.95;;
9409;SDS011;4744;52.576;13.568;2023-06-01T09:59:19;4.40;;;4.00;;
9409;SDS011;4744;52.576;13.568;2023-06-01T10:01:49;5.57;;;4.10;;
9409;SDS011;4744;52.576;13.568;2023-06-01T10:04:17;6.90;;;3.83;;
9409;SDS011;4744;52.576;13.568;2023-06-01T10:06:49;6.70;;;3.97;;
9409;SDS011;4744;52.576;13.568;2023-06-01T10:09:17;7.57;;;4.00;;
9409;SDS011;4744;52.576;13.568;2023-06-01T10:11:46;5.90;;;4.13;;
9409;SDS011;4744;52.576;13.568;2023-06-01T10:14:15;7.13;;;4.43;;
9409;SDS011;4744;52.576;13.568;2023-06-01T10:16:42;5.65;;;3.53;;
9409;SDS011;4744;52.576;13.568;2023-06-01T10:19:09;6.68;;;4.20;;
9409;SDS011;4744;52.576;13.568;2023-06-01T10:21:37;10.25;;;4.00;;
9409;SDS011;4744;52.576;13.568;2023-06-01T10:24:07;6.45;;;3.97;;
9409;SDS011;4744;52.576;13.568;2023-06-01T10:26:36;7.55;;;3.60;;
9409;SDS011;4744;52.576;13.568;2023-06-01T10:29:07;7.32;;;4.07;;
9409;SDS011;4744;52.576;13.568;2023-06-01T10:31:37;4.95;;;3.70;;
9409;SDS011;4744;52.576;13.568;2023-06-01T10:34:06;8.25;;;3.83;;
9409;SDS011;4744;52.576;13.568;2023-06-01T10:39:38;6.15;;;3.65;;
9409;SDS011;4744;52.576;13.568;2023-06-01T10:45:03;4.78;;;3.10;;
9409;SDS011;4744;52.576;13.568;2023-06-01T10:47:48;8.05;;;3.53;;
9409;SDS011;4744;52.576;13.568;2023-06-01T10:50:15;5.80;;;3.60;;
9409;SDS011;4744;52.576;13.568;2023-06-01T10:52:43;5.90;;;3.72;;
9409;SDS011;4744;52.576;13.568;2023-06-01T11:00:46;5.57;;;3.63;;
9409;SDS011;4744;52.576;13.568;2023-06-01T11:03:15;5.47;;;3.42;;
9409;SDS011;4744;52.576;13.568;2023-06-01T11:05:43;6.50;;;4.18;;
9409;SDS011;4744;52.576;13.568;2023-06-01T11:11:20;4.65;;;3.63;;
9409;SDS011;4744;52.576;13.568;2023-06-01T11:14:06;5.05;;;3.85;;
9409;SDS011;4744;52.576;13.568;2023-06-01T11:16:36;7.80;;;4.38;;
9409;SDS011;4744;52.576;13.568;2023-06-01T11:19:04;6.60;;;4.55;;
9409;SDS011;4744;52.576;13.568;2023-06-01T11:21:33;5.18;;;3.88;;
9409;SDS011;4744;52.576;13.568;2023-06-01T11:24:06;5.03;;;3.95;;
9409;SDS011;4744;52.576;13.568;2023-06-01T11:26:38;5.13;;;4.00;;
9409;SDS011;4744;52.576;13.568;2023-06-01T11:29:07;5.20;;;4.18;;
9409;SDS011;4744;52.576;13.568;2023-06-01T11:31:37;8.27;;;4.32;;
9409;SDS011;4744;52.576;13.568;2023-06-01T11:34:08;6.43;;;4.30;;
9409;SDS011;4744;52.576;13.568;2023-06-01T11:36:36;8.90;;;4.22;;
9409;SDS011;4744;52.576;13.568;2023-06-01T11:39:04;9.20;;;4.38;;
9409;SDS011;4744;52.576;13.568;2023-06-01T11:41:34;6.80;;;4.50;;
9409;SDS011;4744;52.576;13.568;2023-06-01T11:44:01;5.97;;;4.60;;
9409;SDS011;4744;52.576;13.568;2023-06-01T11:46:28;5.50;;;4.20;;
9409;SDS011;4744;52.576;13.568;2023-06-01T11:48:58;7.95;;;4.85;;
9409;SDS011;4744;52.576;13.568;2023-06-01T11:51:29;5.45;;;4.25;;
9409;SDS011;4744;52.576;13.568;2023-06-01T11:53:57;7.70;;;5.20;;
9409;SDS011;4744;52.576;13.568;2023-06-01T11:56:29;5.45;;;4.53;;
9409;SDS011;4744;52.576;13.568;2023-06-01T11:58:57;6.28;;;5.20;;
9409;SDS011;4744;52.576;13.568;2023-06-01T12:01:25;5.93;;;5.18;;
9409;SDS011;4744;52.576;13.568;2023-06-01T12:03:52;6.20;;;4.90;;
9409;SDS011;4744;52.576;13.568;2023-06-01T12:06:22;9.23;;;5.57;;
9409;SDS011;4744;52.576;13.568;2023-06-01T12:08:51;7.78;;;5.00;;
9409;SDS011;4744;52.576;13.568;2023-06-01T12:11:21;7.15;;;4.57;;
9409;SDS011;4744;52.576;13.568;2023-06-01T12:13:51;6.50;;;4.80;;
9409;SDS011;4744;52.576;13.568;2023-06-01T12:16:20;5.50;;;4.80;;
9409;SDS011;4744;52.576;13.568;2023-06-01T12:18:47;7.68;;;5.45;;
9409;SDS011;4744;52.576;13.568;2023-06-01T12:21:14;7.40;;;5.05;;
9409;SDS011;4744;52.576;13.568;2023-06-01T12:23:41;7.30;;;5.53;;
9409;SDS011;4744;52.576;13.568;2023-06-01T12:26:10;5.57;;;5.05;;
9409;SDS011;4744;52.576;13.568;2023-06-01T12:28:46;6.28;;;5.22;;
9409;SDS011;4744;52.576;13.568;2023-06-01T12:31:14;6.68;;;5.30;;
9409;SDS011;4744;52.576;13.568;2023-06-01T12:33:42;6.50;;;4.93;;
9409;SDS011;4744;52.576;13.568;2023-06-01T12:36:10;7.28;;;5.30;;
9409;SDS011;4744;52.576;13.568;2023-06-01T12:38:55;5.55;;;4.80;;
9409;SDS011;4744;52.576;13.568;2023-06-01T12:41:25;8.65;;;5.50;;
9409;SDS011;4744;52.576;13.568;2023-06-01T12:43:52;5.50;;;4.78;;
9409;SDS011;4744;52.576;13.568;2023-06-01T12:46:19;6.15;;;5.43;;
9409;SDS011;4744;52.576;13.568;2023-06-01T12:48:48;5.60;;;4.65;;
9409;SDS011;4744;52.576;13.568;2023-06-01T12:51:15;6.45;;;5.50;;
9409;SDS011;4744;52.576;13.568;2023-06-01T12:53:43;10.32;;;5.60;;
9409;SDS011;4744;52.576;13.568;2023-06-01T12:56:10;7.03;;;5.32;;
9409;SDS011;4744;52.576;13.568;2023-06-01T12:58:39;7.88;;;5.50;;
9409;SDS011;4744;52.576;13.568;2023-06-01T13:01:06;8.70;;;5.50;;
9409;SDS011;4744;52.576;13.568;2023-06-01T13:03:33;5.70;;;4.75;;
9409;SDS011;4744;52.576;13.568;2023-06-01T13:06:00;7.97;;;5.53;;
9409;SDS011;4744;52.576;13.568;2023-06-01T13:08:27;5.95;;;4.68;;
9409;SDS011;4744;52.576;13.568;2023-06-01T13:10:54;5.30;;;4.65;;
9409;SDS011;4744;52.576;13.568;2023-06-01T13:13:20;7.85;;;5.05;;
9409;SDS011;4744;52.576;13.568;2023-06-01T13:15:49;8.38;;;4.70;;
9409;SDS011;4744;52.576;13.568;2023-06-01T13:18:16;7.72;;;4.32;;
9409;SDS011;4744;52.576;13.568;2023-06-01T13:20:43;9.52;;;4.80;;
9409;SDS011;4744;52.576;13.568;2023-06-01T13:23:10;7.00;;;4.50;;
9409;SDS011;4744;52.576;13.568;2023-06-01T13:25:37;6.15;;;4.15;;
9409;SDS011;4744;52.576;13.568;2023-06-01T13:28:05;6.70;;;4.32;;
9409;SDS011;4744;52.576;13.568;2023-06-01T13:30:33;3.95;;;3.60;;
9409;SDS011;4744;52.576;13.568;2023-06-01T13:33:01;6.35;;;4.20;;
9409;SDS011;4744;52.576;13.568;2023-06-01T13:35:29;5.97;;;4.15;;
9409;SDS011;4744;52.576;13.568;2023-06-01T13:37:56;4.90;;;4.18;;
9409;SDS011;4744;52.576;13.568;2023-06-01T13:40:23;8.50;;;4.30;;
9409;SDS011;4744;52.576;13.568;2023-06-01T13:42:50;5.55;;;4.10;;
9409;SDS011;4744;52.576;13.568;2023-06-01T13:45:17;9.65;;;4.45;;
9409;SDS011;4744;52.576;13.568;2023-06-01T13:47:44;5.90;;;4.53;;
9409;SDS011;4744;52.576;13.568;2023-06-01T13:50:13;8.15;;;4.70;;
9409;SDS011;4744;52.576;13.568;2023-06-01T13:52:40;7.40;;;4.60;;
9409;SDS011;4744;52.576;13.568;2023-06-01T13:55:07;7.18;;;4.07;;
9409;SDS011;4744;52.576;13.568;2023-06-01T13:57:35;6.43;;;3.88;;
9409;SDS011;4744;52.576;13.568;2023-06-01T14:00:03;7.22;;;3.97;;
9409;SDS011;4744;52.576;13.568;2023-06-01T14:02:31;4.20;;;3.78;;
9409;SDS011;4744;52.576;13.568;2023-06-01T14:04:58;4.15;;;3.80;;
9409;SDS011;4744;52.576;13.568;2023-06-01T14:07:26;6.75;;;4.70;;
9409;SDS011;4744;52.576;13.568;2023-06-01T14:09:53;4.70;;;4.30;;
9409;SDS011;4744;52.576;13.568;2023-06-01T14:12:20;6.57;;;4.40;;
9409;SDS011;4744;52.576;13.568;2023-06-01T14:14:47;7.15;;;4.63;;
9409;SDS011;4744;52.576;13.568;2023-06-01T14:17:14;6.00;;;3.80;;
9409;SDS011;4744;52.576;13.568;2023-06-01T14:19:41;7.15;;;3.92;;
9409;SDS011;4744;52.576;13.568;2023-06-01T14:22:08;6.10;;;4.50;;
9409;SDS011;4744;52.576;13.568;2023-06-01T14:24:36;6.47;;;3.88;;
9409;SDS011;4744;52.576;13.568;2023-06-01T14:27:03;7.47;;;4.10;;
9409;SDS011;4744;52.576;13.568;2023-06-01T14:29:31;5.72;;;4.47;;
9409;SDS011;4744;52.576;13.568;2023-06-01T14:31:58;6.95;;;4.38;;
9409;SDS011;4744;52.576;13.568;2023-06-01T14:34:25;5.43;;;4.05;;
9409;SDS011;4744;52.576;13.568;2023-06-01T14:36:54;5.60;;;3.95;;
9409;SDS011;4744;52.576;13.568;2023-06-01T14:39:21;6.05;;;3.92;;
9409;SDS011;4744;52.576;13.568;2023-06-01T14:41:49;6.07;;;3.97;;
9409;SDS011;4744;52.576;13.568;2023-06-01T14:44:16;5.60;;;4.28;;
9409;SDS011;4744;52.576;13.568;2023-06-01T14:46:43;4.55;;;3.80;;
9409;SDS011;4744;52.576;13.568;2023-06-01T14:49:10;6.43;;;3.90;;
9409;SDS011;4744;52.576;13.568;2023-06-01T14:51:37;6.10;;;3.63;;
9409;SDS011;4744;52.576;13.568;2023-06-01T14:54:04;5.35;;;3.83;;
9409;SDS011;4744;52.576;13.568;2023-06-01T14:56:31;5.88;;;3.97;;
9409;SDS011;4744;52.576;13.568;2023-06-01T14:58:59;5.38;;;3.88;;
9409;SDS011;4744;52.576;13.568;2023-06-01T15:01:26;5.38;;;3.88;;
9409;SDS011;4744;52.576;13.568;2023-06-01T15:03:53;4.68;;;3.92;;
9409;SDS011;4744;52.576;13.568;2023-06-01T15:06:19;5.10;;;3.63;;
9409;SDS011;4744;52.576;13.568;2023-06-01T15:08:46;7.93;;;4.25;;
9409;SDS011;4744;52.576;13.568;2023-06-01T15:11:13;4.97;;;3.60;;
9409;SDS011;4744;52.576;13.568;2023-06-01T15:13:40;5.97;;;3.70;;
9409;SDS011;4744;52.576;13.568;2023-06-01T15:16:09;5.18;;;3.85;;
9409;SDS011;4744;52.576;13.568;2023-06-01T15:18:36;4.18;;;3.67;;
9409;SDS011;4744;52.576;13.568;2023-06-01T15:21:03;5.80;;;4.00;;
9409;SDS011;4744;52.576;13.568;2023-06-01T15:23:30;5.25;;;3.88;;